Eastern Wv Regional Shepherd Field
KMRB : now visible

Airfield :











YOU CAN JOIN US ON...

 
LOGIN :

Register | Disclaimer

   EN    FR    IT 

 









Legend :    VFR   Marginal VFR   IFR   Intensive IFR   Very Intensive IFR
Visi :
Ceiling :
>= 8 km
>= 3000ft
5 to 8 km
1000 to 3000 ft
1500m to 5 km
500 to 1000 ft
800 to 1500m
200 to 500 ft
< 800m
< 200 ft
Symbols :   Thunderstorms  Fog  Heavy snow  Heavy precipitations  Wind > 20 kt






- Airport Elevation : 565 ft


KMRB - Eastern Wv Regional Shepherd Field

CURRENT METAR :
  • 280953Z AUTO 26009KT 10SM BKN050 OVC060 01/M08 A2989 RMK AO2 SLP126 T00061083

EXPIRED METARs :
  • 280853Z AUTO 28009KT 10SM BKN050 OVC060 M01/M08 A2989 RMK AO2 SLP126 T10061083 58011
  • 280753Z AUTO 27009KT 10SM OVC050 M01/M08 A2991 RMK AO2 SLP132 T10061078

TAF KMRB
Valid from the 28 at 06:00 until the 29 at 06:00 UTC


280521Z 2806/2906 26010G20KT P6SM OVC060
FM280900 25007KT P6SM BKN080
FM281500 26014G28KT P6SM FEW040 BKN060
FM282300 28009KT P6SM FEW050 SCT120



MET'MAP, your aeronautical weather chart ! - Copyright ORBIFLY December 2007 - Disclaimer

ORBIFLY MET'MAP TEAM :

Programming & Development : Alexandra Zaïnal
Concept & original design : Baudouin d'Aumeries
Assistance for programming : Marc-Olivier Méhu
Technical & hardware support : Manuel Goepfert

Contact : metmap@orbifly.com




SOURCES & CREDITS :

   NOAA       Earth
Advisory